createdAt,value
2018-06-25T00:01:09.454Z,13.80
2018-06-25T00:03:36.967Z,14.00
2018-06-25T00:06:04.521Z,14.03
2018-06-25T00:08:32.085Z,13.77
2018-06-25T00:10:59.661Z,15.00
2018-06-25T00:13:27.189Z,13.90
2018-06-25T00:15:55.311Z,14.10
2018-06-25T00:18:22.857Z,13.90
2018-06-25T00:20:50.373Z,13.93
2018-06-25T00:23:17.921Z,13.30
2018-06-25T00:25:45.457Z,14.37
2018-06-25T00:28:13.018Z,14.00
2018-06-25T00:30:40.568Z,14.20
2018-06-25T00:33:08.116Z,13.87
2018-06-25T00:35:35.640Z,15.07
2018-06-25T00:38:03.213Z,14.23
2018-06-25T00:40:30.738Z,13.67
2018-06-25T00:42:59.016Z,13.57
2018-06-25T00:45:27.481Z,14.40
2018-06-25T00:47:55.368Z,15.03
2018-06-25T00:50:22.892Z,12.90
2018-06-25T00:52:50.443Z,13.33
2018-06-25T00:55:17.962Z,15.07
2018-06-25T00:57:45.508Z,13.10
2018-06-25T01:00:13.084Z,13.60
2018-06-25T01:02:41.184Z,14.17
2018-06-25T01:05:08.716Z,14.50
2018-06-25T01:07:36.280Z,13.40
2018-06-25T01:10:04.072Z,15.33
2018-06-25T01:12:31.653Z,14.50
2018-06-25T01:14:59.187Z,13.93
2018-06-25T01:17:26.736Z,12.40
2018-06-25T01:19:54.265Z,12.90
2018-06-25T01:22:21.827Z,13.37
2018-06-25T01:24:50.329Z,14.03
2018-06-25T01:27:17.892Z,14.67
2018-06-25T01:29:45.428Z,15.07
2018-06-25T01:32:12.972Z,13.23
2018-06-25T01:34:40.499Z,13.40
2018-06-25T01:37:08.769Z,12.50
2018-06-25T01:39:36.296Z,12.60
2018-06-25T01:42:03.849Z,12.50
2018-06-25T01:44:31.379Z,13.17
2018-06-25T01:46:59.148Z,12.97
2018-06-25T01:49:26.714Z,13.20
2018-06-25T01:51:54.312Z,14.37
2018-06-25T01:54:22.136Z,14.50
2018-06-25T01:56:49.661Z,13.07
2018-06-25T01:59:17.292Z,14.78
2018-06-25T02:01:44.888Z,13.47
2018-06-25T02:04:12.440Z,13.50
2018-06-25T02:06:40.047Z,12.70
2018-06-25T02:09:09.665Z,13.40
2018-06-25T02:11:37.609Z,12.80
2018-06-25T02:14:05.184Z,12.73
2018-06-25T02:16:32.835Z,13.73
2018-06-25T02:19:00.506Z,13.90
2018-06-25T02:21:28.252Z,14.63
2018-06-25T02:23:55.820Z,13.70
2018-06-25T02:26:23.413Z,13.93
2018-06-25T02:28:50.980Z,13.10
2018-06-25T02:31:18.505Z,12.53
2018-06-25T02:33:46.104Z,13.30
2018-06-25T02:36:13.640Z,12.23
2018-06-25T02:38:41.246Z,11.23
2018-06-25T02:41:08.936Z,13.43
2018-06-25T02:43:36.476Z,12.63
2018-06-25T02:46:04.217Z,11.73
2018-06-25T02:48:31.781Z,12.47
2018-06-25T02:50:59.476Z,13.53
2018-06-25T02:53:27.021Z,12.27
2018-06-25T02:55:54.805Z,14.30
2018-06-25T02:58:22.340Z,12.40
2018-06-25T03:00:49.853Z,13.30
2018-06-25T03:03:17.437Z,12.23
2018-06-25T03:05:45.086Z,12.40
2018-06-25T03:08:12.737Z,11.70
2018-06-25T03:10:40.309Z,13.67
2018-06-25T03:13:07.868Z,11.67
2018-06-25T03:15:35.426Z,12.97
2018-06-25T03:18:02.986Z,11.77
2018-06-25T03:20:31.216Z,11.30
2018-06-25T03:22:58.761Z,12.33
2018-06-25T03:25:26.439Z,12.20
2018-06-25T03:27:54.045Z,11.20
2018-06-25T03:30:21.589Z,12.87
2018-06-25T03:32:49.129Z,13.17
2018-06-25T03:35:16.660Z,11.50
2018-06-25T03:37:44.168Z,12.07
2018-06-25T03:40:11.705Z,12.37
2018-06-25T03:42:39.263Z,11.93
2018-06-25T03:45:06.812Z,12.93
2018-06-25T03:47:34.341Z,11.40
2018-06-25T03:50:01.846Z,12.30
2018-06-25T03:52:29.366Z,11.73
2018-06-25T03:54:56.923Z,12.57
2018-06-25T03:57:24.445Z,12.23
2018-06-25T03:59:51.988Z,13.40
2018-06-25T04:02:19.541Z,14.57
2018-06-25T04:04:47.074Z,12.57
2018-06-25T04:07:14.588Z,10.40
2018-06-25T04:09:42.169Z,11.53
2018-06-25T04:12:09.749Z,10.00
2018-06-25T04:14:38.044Z,11.87
2018-06-25T04:17:06.081Z,11.73
2018-06-25T04:19:33.713Z,10.37
2018-06-25T04:22:01.426Z,10.83
2018-06-25T04:24:29.132Z,11.07
2018-06-25T04:26:56.813Z,12.10
2018-06-25T04:29:24.378Z,11.30
2018-06-25T04:31:51.973Z,10.63
2018-06-25T04:34:19.654Z,10.83
2018-06-25T04:36:47.293Z,11.23
2018-06-25T04:39:15.003Z,10.30
2018-06-25T04:41:44.514Z,9.87
2018-06-25T04:44:12.246Z,10.73
2018-06-25T04:46:40.000Z,10.77
2018-06-25T04:49:07.662Z,9.53
2018-06-25T04:51:35.343Z,9.73
2018-06-25T04:54:03.041Z,10.17
2018-06-25T04:56:30.645Z,10.23
2018-06-25T04:58:58.346Z,9.10
2018-06-25T05:01:26.186Z,10.00
2018-06-25T05:03:53.821Z,9.97
2018-06-25T05:06:21.520Z,8.63
2018-06-25T05:08:49.051Z,9.33
2018-06-25T05:11:16.589Z,8.63
2018-06-25T05:13:44.148Z,8.80
2018-06-25T05:16:11.965Z,9.17
2018-06-25T05:18:39.513Z,9.13
2018-06-25T05:21:07.049Z,10.17
2018-06-25T05:23:34.584Z,8.80
2018-06-25T05:26:02.139Z,8.83
2018-06-25T05:28:29.720Z,9.47
2018-06-25T05:30:57.262Z,10.03
2018-06-25T05:33:24.932Z,8.50
2018-06-25T05:35:52.492Z,9.00
2018-06-25T05:38:20.005Z,8.07
2018-06-25T05:40:47.569Z,9.30
2018-06-25T05:43:15.080Z,8.00
2018-06-25T05:45:42.630Z,8.43
2018-06-25T05:48:10.176Z,8.97
2018-06-25T05:50:39.480Z,8.57
2018-06-25T05:53:06.997Z,8.50
2018-06-25T05:55:34.557Z,8.03
2018-06-25T05:58:02.089Z,8.43
2018-06-25T06:00:30.460Z,8.60
2018-06-25T06:02:58.331Z,8.13
2018-06-25T06:05:25.877Z,8.07
2018-06-25T06:07:53.687Z,7.83
2018-06-25T06:10:21.925Z,7.80
2018-06-25T06:12:49.493Z,8.03
2018-06-25T06:15:17.180Z,7.17
2018-06-25T06:17:44.860Z,7.50
2018-06-25T06:20:12.481Z,8.07
2018-06-25T06:22:40.049Z,6.97
2018-06-25T06:25:07.981Z,8.20
2018-06-25T06:27:35.723Z,7.33
2018-06-25T06:30:04.729Z,7.40
2018-06-25T06:32:32.347Z,7.10
2018-06-25T06:34:59.947Z,6.90
2018-06-25T06:37:27.746Z,6.47
2018-06-25T06:39:55.407Z,6.80
2018-06-25T06:42:22.997Z,6.50
2018-06-25T06:44:50.656Z,6.60
2018-06-25T06:47:18.442Z,6.75
2018-06-25T06:49:46.161Z,6.30
2018-06-25T06:52:13.777Z,6.20
2018-06-25T06:54:41.399Z,6.53
2018-06-25T06:57:09.006Z,5.00
2018-06-25T06:59:36.851Z,6.05
2018-06-25T07:02:04.806Z,5.30
2018-06-25T07:04:32.340Z,4.80
2018-06-25T07:06:59.911Z,4.50
2018-06-25T07:09:27.453Z,4.67
2018-06-25T07:11:55.012Z,4.50
2018-06-25T07:14:22.576Z,4.50
2018-06-25T07:16:50.142Z,4.30
2018-06-25T07:19:17.692Z,3.80
2018-06-25T07:21:45.241Z,3.57
2018-06-25T07:24:12.784Z,3.85
2018-06-25T07:26:40.357Z,3.10
2018-06-25T07:29:07.920Z,2.60
2018-06-25T07:31:35.511Z,2.47
2018-06-25T07:34:03.062Z,2.45
2018-06-25T07:36:30.651Z,3.20
2018-06-25T07:38:58.187Z,2.92
2018-06-25T07:41:25.760Z,2.40
2018-06-25T07:43:54.113Z,2.60
2018-06-25T07:46:21.644Z,2.90
2018-06-25T07:48:49.152Z,2.00
2018-06-25T07:51:16.732Z,1.50
2018-06-25T07:53:44.256Z,1.63
2018-06-25T07:56:11.860Z,1.93
2018-06-25T07:58:39.421Z,1.60
2018-06-25T08:01:07.192Z,1.73
2018-06-25T08:03:35.459Z,1.80
2018-06-25T08:06:02.910Z,2.50
2018-06-25T08:08:30.768Z,2.70
2018-06-25T08:10:58.353Z,2.60
2018-06-25T08:13:25.900Z,2.87
2018-06-25T08:15:53.477Z,3.53
2018-06-25T08:18:21.181Z,3.37
2018-06-25T08:20:48.720Z,3.70
2018-06-25T08:23:16.272Z,2.80
2018-06-25T08:25:43.819Z,2.67
2018-06-25T08:28:11.401Z,3.33
2018-06-25T08:30:38.943Z,2.63
2018-06-25T08:33:06.526Z,2.53
2018-06-25T08:35:34.074Z,1.80
2018-06-25T08:38:01.636Z,1.87
2018-06-25T08:40:29.168Z,1.60
2018-06-25T08:42:56.726Z,2.10
2018-06-25T08:45:24.301Z,2.13
2018-06-25T08:47:51.853Z,2.10
2018-06-25T08:50:19.390Z,2.17
2018-06-25T08:52:46.950Z,1.87
2018-06-25T08:55:14.478Z,2.07
2018-06-25T08:57:42.489Z,2.10
2018-06-25T09:00:10.049Z,2.03
2018-06-25T09:02:37.634Z,2.20
2018-06-25T09:05:05.259Z,2.23
2018-06-25T09:07:32.818Z,2.00
2018-06-25T09:10:00.361Z,1.90
2018-06-25T09:12:27.915Z,2.40
2018-06-25T09:14:55.468Z,2.57
2018-06-25T09:17:23.164Z,2.60
2018-06-25T09:19:50.697Z,2.67
2018-06-25T09:22:18.249Z,2.70
2018-06-25T09:24:45.795Z,2.63
2018-06-25T09:27:13.401Z,2.70
2018-06-25T09:29:40.942Z,2.87
2018-06-25T09:32:08.582Z,2.80
2018-06-25T09:34:41.705Z,2.87
2018-06-25T09:37:09.276Z,3.00
2018-06-25T09:39:36.801Z,2.87
2018-06-25T09:42:04.422Z,3.07
2018-06-25T09:44:31.984Z,2.87
2018-06-25T09:46:59.607Z,3.20
2018-06-25T09:49:27.145Z,3.33
2018-06-25T09:51:54.696Z,3.63
2018-06-25T09:54:22.297Z,3.57
2018-06-25T09:56:49.839Z,4.07
2018-06-25T09:59:17.393Z,4.30
2018-06-25T10:01:44.842Z,4.37
2018-06-25T10:04:12.562Z,4.00
2018-06-25T10:06:40.152Z,3.80
2018-06-25T10:09:09.714Z,4.23
2018-06-25T10:11:37.461Z,4.00
2018-06-25T10:14:05.388Z,4.10
2018-06-25T10:16:32.961Z,3.77
2018-06-25T10:19:00.597Z,3.90
2018-06-25T10:21:28.133Z,3.73
2018-06-25T10:23:55.708Z,3.70
2018-06-25T10:26:23.340Z,4.00
2018-06-25T10:28:50.949Z,4.33
2018-06-25T10:31:18.501Z,3.77
2018-06-25T10:33:46.092Z,4.60
2018-06-25T10:36:13.616Z,4.20
2018-06-25T10:38:41.476Z,4.10
2018-06-25T10:41:09.211Z,3.40
2018-06-25T10:43:36.772Z,3.50
2018-06-25T10:46:04.398Z,3.67
2018-06-25T10:48:32.005Z,3.93
2018-06-25T10:50:59.557Z,3.63
2018-06-25T10:53:27.131Z,4.20
2018-06-25T10:55:54.753Z,4.23
2018-06-25T10:58:22.313Z,4.77
2018-06-25T11:00:49.850Z,4.62
2018-06-25T11:03:17.393Z,4.23
2018-06-25T11:05:45.051Z,4.60
2018-06-25T11:08:12.608Z,4.87
2018-06-25T11:10:40.141Z,4.53
2018-06-25T11:13:07.787Z,4.57
2018-06-25T11:15:35.437Z,4.60
2018-06-25T11:18:03.350Z,4.80
2018-06-25T11:20:31.167Z,4.77
2018-06-25T11:22:59.670Z,4.70
2018-06-25T11:25:27.291Z,4.60
2018-06-25T11:27:55.025Z,4.25
2018-06-25T11:30:22.704Z,4.07
2018-06-25T11:32:50.641Z,4.03
2018-06-25T11:35:18.334Z,4.10
2018-06-25T11:37:46.001Z,4.40
2018-06-25T11:40:13.601Z,4.10
2018-06-25T11:42:41.333Z,3.60
2018-06-25T11:45:08.945Z,3.17
2018-06-25T11:47:36.634Z,3.80
2018-06-25T11:50:05.325Z,3.30
2018-06-25T11:52:32.958Z,3.30
2018-06-25T11:55:00.865Z,3.17
2018-06-25T11:57:28.461Z,2.80
2018-06-25T11:59:56.516Z,2.37
2018-06-25T12:02:24.277Z,3.10
2018-06-25T12:04:51.800Z,2.97
2018-06-25T12:07:19.449Z,2.67
2018-06-25T12:09:47.029Z,3.00
2018-06-25T12:12:14.564Z,2.90
2018-06-25T12:14:42.149Z,3.00
2018-06-25T12:17:09.680Z,2.97
2018-06-25T12:19:37.264Z,3.17
2018-06-25T12:22:04.816Z,2.80
2018-06-25T12:24:32.388Z,3.27
2018-06-25T12:26:59.990Z,3.17
2018-06-25T12:29:27.544Z,2.90
2018-06-25T12:31:55.112Z,3.10
2018-06-25T12:34:22.657Z,2.97
2018-06-25T12:36:50.206Z,3.00
2018-06-25T12:39:17.761Z,3.00
2018-06-25T12:41:45.281Z,2.87
2018-06-25T12:44:12.816Z,3.03
2018-06-25T12:46:40.284Z,3.10
2018-06-25T12:49:07.849Z,2.77
2018-06-25T12:51:35.374Z,3.40
2018-06-25T12:54:02.993Z,3.13
2018-06-25T12:56:30.617Z,3.63
2018-06-25T12:58:58.180Z,3.47
2018-06-25T13:01:25.779Z,3.60
2018-06-25T13:03:53.329Z,3.53
2018-06-25T13:06:21.089Z,4.20
2018-06-25T13:08:48.783Z,3.70
2018-06-25T13:11:16.479Z,3.97
2018-06-25T13:13:44.048Z,3.43
2018-06-25T13:16:11.624Z,4.20
2018-06-25T13:18:39.290Z,3.10
2018-06-25T13:21:07.301Z,3.10
2018-06-25T13:23:34.900Z,3.20
2018-06-25T13:26:02.817Z,3.43
2018-06-25T13:28:31.414Z,3.97
2018-06-25T13:30:59.135Z,3.10
2018-06-25T13:33:26.799Z,2.90
2018-06-25T13:35:54.467Z,3.13
2018-06-25T13:38:22.117Z,2.80
2018-06-25T13:40:49.734Z,2.90
2018-06-25T13:43:17.433Z,2.80
2018-06-25T13:45:45.254Z,2.27
2018-06-25T13:48:12.936Z,2.50
2018-06-25T13:50:40.669Z,2.37
2018-06-25T13:53:08.397Z,2.30
2018-06-25T13:55:36.047Z,2.87
2018-06-25T13:58:03.812Z,2.83
2018-06-25T14:00:31.632Z,2.43
2018-06-25T14:02:59.271Z,2.67
2018-06-25T14:05:26.874Z,2.10
2018-06-25T14:07:54.576Z,2.20
2018-06-25T14:10:22.196Z,2.37
2018-06-25T14:12:49.927Z,2.40
2018-06-25T14:15:17.586Z,2.47
2018-06-25T14:17:45.864Z,2.17
2018-06-25T14:20:14.066Z,2.17
2018-06-25T14:22:42.501Z,2.10
2018-06-25T14:25:10.375Z,1.93
2018-06-25T14:27:43.668Z,1.80
2018-06-25T14:30:17.027Z,1.70
2018-06-25T14:32:56.151Z,1.90
2018-06-25T14:35:24.529Z,1.90
2018-06-25T14:37:52.311Z,1.73
2018-06-25T14:40:20.568Z,2.03
2018-06-25T14:42:48.274Z,2.00
2018-06-25T14:45:16.008Z,1.97
2018-06-25T14:47:43.574Z,1.67
2018-06-25T14:50:11.252Z,1.70
2018-06-25T14:52:38.985Z,1.90
2018-06-25T14:55:06.653Z,1.70
2018-06-25T14:57:34.309Z,1.70
2018-06-25T15:00:02.006Z,2.00
2018-06-25T15:02:30.038Z,1.57
2018-06-25T15:04:57.677Z,1.70
2018-06-25T15:07:25.415Z,1.50
2018-06-25T15:09:53.041Z,1.60
2018-06-25T15:12:20.833Z,1.57
2018-06-25T15:14:48.518Z,1.50
2018-06-25T15:17:16.200Z,1.43
2018-06-25T15:19:43.914Z,1.40
2018-06-25T15:22:11.662Z,1.37
2018-06-25T15:24:39.305Z,1.30
2018-06-25T15:27:07.025Z,1.47
2018-06-25T15:29:35.482Z,1.60
2018-06-25T15:32:03.277Z,1.40
2018-06-25T15:34:30.910Z,1.60
2018-06-25T15:36:59.215Z,1.63
2018-06-25T15:39:26.945Z,1.40
2018-06-25T15:41:54.654Z,1.53
2018-06-25T15:44:22.992Z,1.37
2018-06-25T15:46:50.884Z,1.53
2018-06-25T15:49:18.517Z,1.80
2018-06-25T15:51:46.148Z,1.73
2018-06-25T15:54:13.813Z,1.80
2018-06-25T15:56:41.398Z,1.60
2018-06-25T15:59:08.929Z,1.80
2018-06-25T16:01:36.548Z,1.90
2018-06-25T16:04:04.197Z,2.13
2018-06-25T16:06:32.078Z,1.70
2018-06-25T16:08:59.644Z,1.90
2018-06-25T16:11:27.809Z,1.80
2018-06-25T16:13:55.365Z,2.20
2018-06-25T16:16:23.001Z,2.30
2018-06-25T16:18:50.581Z,2.17
2018-06-25T16:21:18.173Z,2.03
2018-06-25T16:23:45.739Z,2.20
2018-06-25T16:26:13.928Z,2.57
2018-06-25T16:28:41.591Z,2.20
2018-06-25T16:31:09.253Z,2.30
2018-06-25T16:33:36.883Z,2.40
2018-06-25T16:36:04.582Z,2.60
2018-06-25T16:38:32.325Z,2.53
2018-06-25T16:40:59.985Z,2.47
2018-06-25T16:43:27.565Z,2.23
2018-06-25T16:45:55.174Z,2.65
2018-06-25T16:48:22.757Z,2.53
2018-06-25T16:50:50.341Z,2.57
2018-06-25T16:53:17.959Z,2.27
2018-06-25T16:55:45.528Z,2.40
2018-06-25T16:58:13.153Z,2.20
2018-06-25T17:00:40.730Z,2.50
2018-06-25T17:03:08.304Z,2.30
2018-06-25T17:05:35.993Z,2.30
2018-06-25T17:08:03.965Z,2.77
2018-06-25T17:10:31.766Z,2.40
2018-06-25T17:12:59.323Z,2.70
2018-06-25T17:15:27.030Z,2.90
2018-06-25T17:17:54.841Z,2.70
2018-06-25T17:20:22.431Z,2.70
2018-06-25T17:22:50.164Z,2.80
2018-06-25T17:25:18.110Z,2.20
2018-06-25T17:27:46.009Z,2.77
2018-06-25T17:30:13.692Z,2.83
2018-06-25T17:32:41.832Z,3.03
2018-06-25T17:35:09.867Z,3.30
2018-06-25T17:37:37.665Z,3.13
2018-06-25T17:40:05.838Z,3.53
2018-06-25T17:42:33.656Z,3.90
2018-06-25T17:45:01.416Z,3.07
2018-06-25T17:47:29.721Z,4.03
2018-06-25T17:49:57.657Z,3.80
2018-06-25T17:52:25.555Z,3.80
2018-06-25T17:54:53.360Z,3.90
2018-06-25T17:57:21.209Z,4.17
2018-06-25T17:59:49.258Z,3.70
2018-06-25T18:02:16.852Z,3.90
2018-06-25T18:04:44.457Z,3.57
2018-06-25T18:07:12.300Z,3.63
2018-06-25T18:09:39.889Z,4.30
2018-06-25T18:12:07.476Z,4.33
2018-06-25T18:14:35.070Z,4.20
2018-06-25T18:17:02.648Z,4.37
2018-06-25T18:19:30.319Z,4.67
2018-06-25T18:21:58.000Z,5.00
2018-06-25T18:24:25.619Z,5.27
2018-06-25T18:26:53.319Z,5.90
2018-06-25T18:29:20.864Z,5.67
2018-06-25T18:31:48.437Z,5.83
2018-06-25T18:34:16.039Z,6.00
2018-06-25T18:36:43.666Z,6.00
2018-06-25T18:39:12.929Z,6.27
2018-06-25T18:41:41.240Z,6.47
2018-06-25T18:44:08.948Z,6.57
2018-06-25T18:46:36.674Z,6.20
2018-06-25T18:49:04.306Z,6.07
2018-06-25T18:51:32.049Z,6.50
2018-06-25T18:54:00.245Z,7.33
2018-06-25T18:56:28.101Z,7.10
2018-06-25T18:58:55.962Z,7.00
2018-06-25T19:01:23.856Z,7.20
2018-06-25T19:03:51.406Z,7.77
2018-06-25T19:06:19.745Z,8.37
2018-06-25T19:08:47.452Z,8.83
2018-06-25T19:11:15.078Z,8.33
2018-06-25T19:13:42.687Z,8.17
2018-06-25T19:16:10.265Z,8.30
2018-06-25T19:18:38.033Z,7.93
2018-06-25T19:21:05.590Z,8.63
2018-06-25T19:23:33.235Z,8.70
2018-06-25T19:26:00.788Z,9.40
2018-06-25T19:28:28.405Z,8.63
2018-06-25T19:30:56.145Z,9.67
2018-06-25T19:33:23.735Z,9.07
2018-06-25T19:35:51.252Z,9.20
2018-06-25T19:38:18.812Z,8.93
2018-06-25T19:40:46.678Z,9.50
2018-06-25T19:43:14.225Z,9.67
2018-06-25T19:45:41.818Z,9.00
2018-06-25T19:48:09.610Z,9.43
2018-06-25T19:50:37.154Z,10.03
2018-06-25T19:53:04.720Z,10.23
2018-06-25T19:55:32.468Z,10.37
2018-06-25T19:58:00.334Z,10.10
2018-06-25T20:00:27.886Z,9.57
2018-06-25T20:02:55.418Z,10.70
2018-06-25T20:05:22.995Z,9.03
2018-06-25T20:07:50.544Z,10.47
2018-06-25T20:10:18.082Z,10.00
2018-06-25T20:12:45.609Z,9.10
2018-06-25T20:15:13.245Z,10.00
2018-06-25T20:17:41.009Z,10.33
2018-06-25T20:20:08.776Z,9.77
2018-06-25T20:22:36.349Z,10.43
2018-06-25T20:25:05.425Z,11.10
2018-06-25T20:27:32.994Z,11.43
2018-06-25T20:30:00.562Z,11.73
2018-06-25T20:32:28.113Z,11.53
2018-06-25T20:34:56.321Z,11.27
2018-06-25T20:37:23.831Z,11.47
2018-06-25T20:39:51.401Z,10.23
2018-06-25T20:42:18.945Z,9.60
2018-06-25T20:44:46.488Z,10.83
2018-06-25T20:47:14.021Z,9.87
2018-06-25T20:49:41.604Z,9.63
2018-06-25T20:52:09.161Z,10.07
2018-06-25T20:54:36.699Z,11.23
2018-06-25T20:57:04.273Z,12.47
2018-06-25T20:59:31.827Z,12.57
2018-06-25T21:01:59.420Z,12.00
2018-06-25T21:04:26.974Z,10.97
2018-06-25T21:06:54.550Z,12.20
2018-06-25T21:09:22.088Z,11.50
2018-06-25T21:11:49.649Z,11.87
2018-06-25T21:14:17.107Z,11.27
2018-06-25T21:16:44.671Z,12.00
2018-06-25T21:19:12.204Z,11.70
2018-06-25T21:21:39.757Z,12.33
2018-06-25T21:24:07.453Z,12.60
2018-06-25T21:26:35.028Z,13.47
2018-06-25T21:29:02.674Z,13.67
2018-06-25T21:31:30.244Z,11.83
2018-06-25T21:33:57.760Z,12.03
2018-06-25T21:36:25.284Z,11.67
2018-06-25T21:38:52.885Z,12.70
2018-06-25T21:41:20.416Z,12.17
2018-06-25T21:43:47.988Z,11.63
2018-06-25T21:46:15.561Z,13.53
2018-06-25T21:48:43.153Z,12.93
2018-06-25T21:51:11.046Z,13.13
2018-06-25T21:53:38.624Z,12.70
2018-06-25T21:56:06.163Z,12.93
2018-06-25T21:58:33.783Z,15.03
2018-06-25T22:01:13.985Z,12.93
2018-06-25T22:03:41.541Z,15.03
2018-06-25T22:06:10.196Z,14.60
2018-06-25T22:08:37.748Z,15.73
2018-06-25T22:11:05.368Z,15.90
2018-06-25T22:13:32.918Z,15.67
2018-06-25T22:16:00.455Z,15.90
2018-06-25T22:18:28.060Z,14.57
2018-06-25T22:20:55.600Z,13.77
2018-06-25T22:23:23.166Z,13.43
2018-06-25T22:25:50.719Z,14.00
2018-06-25T22:28:18.304Z,15.27
2018-06-25T22:30:45.852Z,15.97
2018-06-25T22:33:13.404Z,17.60
2018-06-25T22:35:40.948Z,14.57
2018-06-25T22:38:08.502Z,15.67
2018-06-25T22:40:36.108Z,13.50
2018-06-25T22:43:03.671Z,14.57
2018-06-25T22:45:31.240Z,15.23
2018-06-25T22:47:58.794Z,15.00
2018-06-25T22:50:26.387Z,16.40
2018-06-25T22:52:53.925Z,16.13
2018-06-25T22:55:21.976Z,15.57
2018-06-25T22:57:49.527Z,16.37
2018-06-25T23:00:17.105Z,18.20
2018-06-25T23:02:44.661Z,17.03
2018-06-25T23:05:12.242Z,17.40
2018-06-25T23:07:39.790Z,15.90
2018-06-25T23:10:07.372Z,17.30
2018-06-25T23:12:34.935Z,15.33
2018-06-25T23:15:02.587Z,16.50
2018-06-25T23:17:30.122Z,15.07
2018-06-25T23:19:57.664Z,17.83
2018-06-25T23:22:25.216Z,18.77
2018-06-25T23:24:52.894Z,18.20
2018-06-25T23:27:20.486Z,17.23
2018-06-25T23:29:48.046Z,17.70
2018-06-25T23:32:15.608Z,18.57
2018-06-25T23:34:43.140Z,19.03
2018-06-25T23:37:10.709Z,18.93
2018-06-25T23:39:38.236Z,18.13
2018-06-25T23:42:05.833Z,21.00
2018-06-25T23:44:33.397Z,19.57
2018-06-25T23:47:00.985Z,21.73
2018-06-25T23:49:28.540Z,19.07
2018-06-25T23:51:56.089Z,20.80
2018-06-25T23:54:23.634Z,19.70
2018-06-25T23:56:51.225Z,18.30
2018-06-25T23:59:18.752Z,17.40
